Time;durP1;ratioP1;P1;durP2;ratioP2;P2;SDS_P1;SDS_P2;PMS_P1;PMS_P2;Temp;Humidity;BMP_temperature;BMP_pressure;BME280_temperature;BME280_humidity;BME280_pressure;Samples;Min_cycle;Max_cycle;Signal;HPM_P1;HPM_P2
2023/04/27 00:00:37;;;;;;;4.35;2.65;;;4.10;99.90;;;;;;4999597;28;20057;-81
2023/04/27 00:03:04;;;;;;;6.20;2.78;;;3.30;99.90;;;;;;4999431;28;20050;-81
2023/04/27 00:05:37;;;;;;;5.53;2.65;;;3.10;99.90;;;;;;4999243;28;20060;-81
2023/04/27 00:08:07;;;;;;;;;;;3.30;99.90;;;;;;5015859;28;20050;-80
2023/04/27 00:10:33;;;;;;;5.47;2.40;;;3.00;99.90;;;;;;5015400;28;19925;-80
2023/04/27 00:12:59;;;;;;;4.28;2.35;;;3.10;99.90;;;;;;5015178;28;20061;-80
2023/04/27 00:15:25;;;;;;;3.90;2.30;;;3.30;99.90;;;;;;5016132;28;20057;-80
2023/04/27 00:17:50;;;;;;;4.85;2.58;;;3.50;99.90;;;;;;5016059;28;20508;-80
2023/04/27 00:20:17;;;;;;;4.07;2.03;;;3.80;99.90;;;;;;5015923;28;20058;-80
2023/04/27 00:22:43;;;;;;;4.38;2.17;;;3.40;99.90;;;;;;5016475;28;20056;-80
2023/04/27 00:25:10;;;;;;;4.68;2.05;;;3.90;99.90;;;;;;5016066;28;20475;-80
2023/04/27 00:27:36;;;;;;;5.82;2.17;;;3.10;99.90;;;;;;4998782;28;20057;-80
2023/04/27 00:30:03;;;;;;;3.75;2.33;;;4.10;99.90;;;;;;4998367;28;20038;-80
2023/04/27 00:32:28;;;;;;;4.40;2.28;;;3.10;99.90;;;;;;4998902;28;20049;-80
2023/04/27 00:34:54;;;;;;;3.95;2.03;;;4.00;99.90;;;;;;5014937;28;20111;-81
2023/04/27 00:37:20;;;;;;;4.30;2.20;;;3.10;99.90;;;;;;5014948;28;20441;-80
2023/04/27 00:39:46;;;;;;;4.75;2.40;;;3.50;99.90;;;;;;4998543;28;20054;-81
2023/04/27 00:42:15;;;;;;;4.43;2.28;;;3.00;99.90;;;;;;4999261;28;20053;-81
2023/04/27 00:44:40;;;;;;;4.03;1.85;;;3.80;99.90;;;;;;5014721;28;20057;-79
2023/04/27 00:47:06;;;;;;;3.95;2.42;;;3.80;99.90;;;;;;5014365;28;20398;-80
2023/04/27 00:49:32;;;;;;;4.88;2.22;;;3.30;99.90;;;;;;5014027;28;20058;-80
2023/04/27 00:51:59;;;;;;;3.95;2.10;;;3.10;99.90;;;;;;5014679;28;20057;-81
2023/04/27 00:54:25;;;;;;;4.35;2.17;;;2.80;99.90;;;;;;4998296;28;20418;-81
2023/04/27 00:56:52;;;;;;;7.20;2.40;;;3.60;99.90;;;;;;5014662;28;20104;-81
2023/04/27 00:59:18;;;;;;;4.22;2.40;;;3.20;99.90;;;;;;4981180;28;20045;-81
2023/04/27 01:01:45;;;;;;;4.70;2.38;;;3.80;99.90;;;;;;4998549;28;20492;-81
2023/04/27 01:04:11;;;;;;;6.13;2.80;;;3.80;99.90;;;;;;4998190;28;20057;-81
2023/04/27 01:06:38;;;;;;;7.32;2.90;;;3.40;99.90;;;;;;5014526;28;20046;-81
2023/04/27 01:09:05;;;;;;;7.25;2.80;;;4.10;99.90;;;;;;4982883;28;20042;-80
2023/04/27 01:11:34;;;;;;;6.78;2.80;;;3.30;99.90;;;;;;5014390;28;20058;-81
2023/04/27 01:14:05;;;;;;;7.38;2.90;;;4.50;99.90;;;;;;5014297;28;20050;-81
2023/04/27 01:16:32;;;;;;;5.43;2.92;;;3.70;99.90;;;;;;5014185;28;20145;-81
2023/04/27 01:18:58;;;;;;;8.82;3.30;;;3.80;99.90;;;;;;5014376;28;20058;-82
2023/04/27 01:21:25;;;;;;;6.38;2.90;;;4.50;99.90;;;;;;5013948;28;20464;-82
2023/04/27 01:23:51;;;;;;;8.32;2.55;;;3.80;99.90;;;;;;5014814;28;20046;-81
2023/04/27 01:26:16;;;;;;;7.63;3.22;;;4.50;99.90;;;;;;5014952;28;20482;-82
2023/04/27 01:28:42;;;;;;;7.32;2.72;;;4.10;99.90;;;;;;4998188;28;20041;-82
2023/04/27 01:31:12;;;;;;;7.75;2.80;;;4.00;99.90;;;;;;4997676;28;20050;-81
2023/04/27 01:33:39;;;;;;;4.00;2.42;;;4.20;99.90;;;;;;5015688;28;20136;-82
2023/04/27 01:36:05;;;;;;;4.35;2.60;;;4.00;99.90;;;;;;5013596;28;20486;-81
2023/04/27 01:38:34;;;;;;;8.27;3.25;;;3.70;99.90;;;;;;5015536;28;20045;-81
2023/04/27 01:41:02;;;;;;;7.20;2.90;;;4.20;99.90;;;;;;4997426;28;20372;-81
2023/04/27 01:43:30;;;;;;;5.60;2.53;;;4.00;99.90;;;;;;4998005;28;20549;-82
2023/04/27 01:45:55;;;;;;;6.65;2.80;;;4.50;99.90;;;;;;5013339;28;20096;-81
2023/04/27 01:48:21;;;;;;;6.40;3.00;;;4.10;99.90;;;;;;5012964;28;20085;-81
2023/04/27 01:50:47;;;;;;;7.45;3.45;;;4.30;99.90;;;;;;5013397;28;20050;-81
2023/04/27 01:53:13;;;;;;;6.60;3.35;;;4.00;99.90;;;;;;4997206;28;20536;-82
2023/04/27 01:55:39;;;;;;;7.40;3.15;;;4.20;99.90;;;;;;4997983;28;20360;-82
2023/04/27 01:58:04;;;;;;;4.65;2.65;;;3.80;99.90;;;;;;5014204;28;20100;-83
2023/04/27 02:00:31;;;;;;;4.28;2.20;;;4.30;99.90;;;;;;4997116;28;20042;-82
2023/04/27 02:02:59;;;;;;;4.70;2.30;;;3.80;99.90;;;;;;5013326;28;20046;-81
2023/04/27 02:05:24;;;;;;;3.40;2.10;;;3.60;99.90;;;;;;4998125;28;20054;-82
2023/04/27 02:07:50;;;;;;;4.32;2.50;;;3.70;99.90;;;;;;4997116;28;20537;-82
2023/04/27 02:10:16;;;;;;;3.03;1.92;;;4.00;99.90;;;;;;4996576;28;20454;-82
2023/04/27 02:12:41;;;;;;;4.82;2.30;;;4.30;99.90;;;;;;5013205;28;20053;-81
2023/04/27 02:15:08;;;;;;;5.07;2.72;;;3.70;99.90;;;;;;5012925;28;20042;-82
2023/04/27 02:17:34;;;;;;;4.13;1.98;;;3.60;99.90;;;;;;5013349;28;20046;-82
2023/04/27 02:20:00;;;;;;;5.43;2.10;;;4.00;99.90;;;;;;5013002;28;20058;-82
2023/04/27 02:22:25;;;;;;;3.22;2.30;;;3.40;99.90;;;;;;5014490;28;20046;-82
2023/04/27 02:24:51;;;;;;;3.47;2.03;;;3.80;99.90;;;;;;4996733;28;20093;-82
2023/04/27 02:27:17;;;;;;;5.93;2.50;;;3.80;99.90;;;;;;5013518;28;20056;-82
2023/04/27 02:29:42;;;;;;;4.00;2.35;;;3.60;99.90;;;;;;5012643;28;20042;-81
2023/04/27 02:32:08;;;;;;;6.47;2.30;;;3.50;99.90;;;;;;4980723;28;20057;-82
2023/04/27 02:34:34;;;;;;;3.17;1.65;;;3.80;99.90;;;;;;5012846;28;20068;-82
2023/04/27 02:37:00;;;;;;;4.97;2.45;;;3.50;99.90;;;;;;4996760;28;20054;-82
2023/04/27 02:39:25;;;;;;;4.05;2.22;;;4.00;99.90;;;;;;5012590;28;20045;-81
2023/04/27 02:41:51;;;;;;;5.65;2.65;;;3.70;99.90;;;;;;5012859;28;20046;-81
2023/04/27 02:44:17;;;;;;;4.15;2.20;;;3.30;99.90;;;;;;5013816;28;20133;-82
2023/04/27 02:46:42;;;;;;;3.83;2.25;;;3.30;99.90;;;;;;4996468;28;20038;-82
2023/04/27 02:49:08;;;;;;;3.25;1.98;;;2.90;99.90;;;;;;4996586;28;20069;-80
2023/04/27 02:51:34;;;;;;;3.30;1.90;;;3.50;99.90;;;;;;5013031;28;20394;-82
2023/04/27 02:54:00;;;;;;;3.90;2.28;;;3.20;99.90;;;;;;5012487;28;20414;-82
2023/04/27 02:56:25;;;;;;;4.00;2.60;;;4.00;99.90;;;;;;5013523;28;20050;-82
2023/04/27 02:58:51;;;;;;;4.28;2.35;;;4.00;99.90;;;;;;5012753;28;20435;-82
2023/04/27 03:01:17;;;;;;;3.83;2.55;;;3.80;99.90;;;;;;5013663;28;20045;-82
2023/04/27 03:03:48;;;;;;;4.30;2.40;;;3.10;99.90;;;;;;5012624;28;20049;-82
2023/04/27 03:06:14;;;;;;;4.28;2.35;;;2.90;99.90;;;;;;5012585;28;20054;-82
2023/04/27 03:08:40;;;;;;;5.57;2.35;;;2.80;99.90;;;;;;4996931;28;20367;-82
2023/04/27 03:11:08;;;;;;;4.90;2.22;;;3.50;99.90;;;;;;5012553;28;20477;-82
2023/04/27 03:13:40;;;;;;;3.92;2.10;;;2.60;99.90;;;;;;5012572;28;20053;-82
2023/04/27 03:16:07;;;;;;;5.97;2.33;;;2.60;99.90;;;;;;5014065;28;20050;-82
2023/04/27 03:18:33;;;;;;;3.92;1.88;;;2.80;99.90;;;;;;5012496;28;20054;-85
2023/04/27 03:21:06;;;;;;;3.28;1.83;;;3.40;99.90;;;;;;4996518;28;20100;-82
2023/04/27 03:23:32;;;;;;;4.45;2.72;;;2.60;99.90;;;;;;5017214;28;20052;-82
2023/04/27 03:25:58;;;;;;;3.15;1.83;;;2.50;99.90;;;;;;5016464;28;20128;-82
2023/04/27 03:28:24;;;;;;;5.13;2.50;;;3.60;99.90;;;;;;5016281;28;20079;-82
2023/04/27 03:30:50;;;;;;;5.15;1.95;;;3.40;99.90;;;;;;4999796;28;20050;-82
2023/04/27 03:33:17;;;;;;;3.53;2.08;;;2.70;99.90;;;;;;4999532;28;20053;-82
2023/04/27 03:35:43;;;;;;;4.20;1.95;;;2.30;99.90;;;;;;4999808;28;20054;-82
2023/04/27 03:38:08;;;;;;;4.28;1.98;;;3.70;99.90;;;;;;4998826;28;20042;-82
2023/04/27 03:40:34;;;;;;;4.57;2.17;;;2.70;99.90;;;;;;5015993;28;20042;-82
2023/04/27 03:43:00;;;;;;;4.13;2.05;;;2.60;99.90;;;;;;5016819;28;20390;-82
2023/04/27 03:45:26;;;;;;;4.43;1.92;;;3.20;99.90;;;;;;4999569;28;20057;-82
2023/04/27 03:47:51;;;;;;;4.28;2.20;;;3.30;99.90;;;;;;5000240;28;20064;-82
2023/04/27 03:50:17;;;;;;;4.22;2.00;;;2.70;99.90;;;;;;4982752;28;20093;-82
2023/04/27 03:52:43;;;;;;;3.22;1.85;;;2.70;99.90;;;;;;5015679;28;20090;-82
2023/04/27 03:55:08;;;;;;;2.40;1.52;;;2.40;99.90;;;;;;4999489;28;20050;-82
2023/04/27 03:57:34;;;;;;;5.25;1.95;;;2.20;99.90;;;;;;4999711;28;20050;-82
2023/04/27 04:00:00;;;;;;;5.78;2.58;;;2.20;99.90;;;;;;4999277;28;20069;-82
2023/04/27 04:02:26;;;;;;;3.90;2.05;;;2.30;99.90;;;;;;5016345;28;20050;-82
2023/04/27 04:04:52;;;;;;;3.00;1.90;;;2.50;99.90;;;;;;5015478;28;20052;-82
2023/04/27 04:07:17;;;;;;;4.20;2.25;;;2.50;99.90;;;;;;4999707;28;20109;-82
2023/04/27 04:09:43;;;;;;;4.05;1.98;;;2.00;99.90;;;;;;5015289;28;20041;-83
2023/04/27 04:12:09;;;;;;;3.40;2.10;;;2.20;99.90;;;;;;4999761;28;20056;-82
2023/04/27 04:14:35;;;;;;;3.85;2.00;;;2.70;99.90;;;;;;5015456;28;20046;-82
2023/04/27 04:17:00;;;;;;;5.72;2.03;;;2.40;99.90;;;;;;4999045;28;20073;-82
2023/04/27 04:19:26;;;;;;;6.22;2.38;;;2.30;99.90;;;;;;4998846;28;20128;-82
2023/04/27 04:21:53;;;;;;;4.10;2.03;;;2.50;99.90;;;;;;5016024;28;20062;-82
2023/04/27 04:24:19;;;;;;;2.97;1.58;;;2.80;99.90;;;;;;5015178;28;20188;-82
2023/04/27 04:26:44;;;;;;;3.97;1.75;;;2.40;99.90;;;;;;5015118;28;20126;-82
2023/04/27 04:29:10;;;;;;;4.38;1.95;;;2.50;99.90;;;;;;4999415;28;20050;-82
2023/04/27 04:31:36;;;;;;;5.43;2.10;;;2.10;99.90;;;;;;4982285;28;20048;-82
2023/04/27 04:34:02;;;;;;;4.90;1.95;;;2.20;99.90;;;;;;5014990;28;20045;-82
2023/04/27 04:36:29;;;;;;;5.10;2.60;;;2.50;99.90;;;;;;4998621;28;20071;-82
2023/04/27 04:38:56;;;;;;;3.33;1.83;;;2.30;99.90;;;;;;4998696;28;20486;-82
2023/04/27 04:41:22;;;;;;;4.75;2.05;;;2.00;99.90;;;;;;4982098;28;20081;-82
2023/04/27 04:43:48;;;;;;;4.10;2.03;;;1.90;99.90;;;;;;5014701;28;20529;-82
2023/04/27 04:46:14;;;;;;;5.55;2.63;;;2.10;99.90;;;;;;5014621;28;20089;-82
2023/04/27 04:48:40;;;;;;;4.32;2.67;;;2.30;99.90;;;;;;4998504;28;20045;-84
2023/04/27 04:51:06;;;;;;;5.15;2.53;;;2.30;99.90;;;;;;4998669;28;20096;-82
2023/04/27 04:53:31;;;;;;;4.47;2.65;;;2.10;99.90;;;;;;4998263;28;20046;-82
2023/04/27 04:56:06;;;;;;;6.72;2.92;;;2.80;99.90;;;;;;5014551;28;20092;-82
2023/04/27 04:58:32;;;;;;;5.28;2.83;;;2.40;99.90;;;;;;4997889;28;20045;-82
2023/04/27 05:00:58;;;;;;;6.45;2.78;;;2.20;99.90;;;;;;4998077;28;20050;-82
2023/04/27 05:03:23;;;;;;;4.40;2.63;;;2.30;99.90;;;;;;5014278;28;20042;-82
2023/04/27 05:05:49;;;;;;;6.20;2.85;;;2.50;99.90;;;;;;5014430;28;20046;-82
2023/04/27 05:08:16;;;;;;;6.07;3.10;;;2.40;99.90;;;;;;4998514;28;20050;-82
2023/04/27 05:10:47;;;;;;;5.60;2.83;;;2.70;99.90;;;;;;4981635;28;20065;-82
2023/04/27 05:13:12;;;;;;;4.88;2.75;;;3.20;99.90;;;;;;4997966;28;20054;-83
2023/04/27 05:15:38;;;;;;;6.50;2.80;;;2.70;99.90;;;;;;4997696;28;20053;-82
2023/04/27 05:18:04;;;;;;;7.20;3.38;;;2.40;99.90;;;;;;4998283;28;20060;-83
2023/04/27 05:20:29;;;;;;;8.10;3.10;;;2.50;99.90;;;;;;4998052;28;20068;-83
2023/04/27 05:22:55;;;;;;;9.05;3.03;;;3.10;99.90;;;;;;4998199;28;20056;-83
2023/04/27 05:25:21;;;;;;;7.50;3.47;;;1.80;99.90;;;;;;4981177;28;20502;-83
2023/04/27 05:27:46;;;;;;;5.53;3.53;;;3.10;99.90;;;;;;5014334;28;20045;-82
2023/04/27 05:30:12;;;;;;;9.23;4.03;;;3.60;99.90;;;;;;4980728;28;20052;-84
2023/04/27 05:32:38;;;;;;;7.22;3.65;;;2.60;99.90;;;;;;5014226;28;20046;-83
2023/04/27 05:35:04;;;;;;;7.15;3.83;;;3.60;99.90;;;;;;4997442;28;20045;-84
2023/04/27 05:37:30;;;;;;;6.47;3.55;;;2.80;99.90;;;;;;4997256;28;20093;-83
2023/04/27 05:39:56;;;;;;;9.55;3.70;;;3.70;99.90;;;;;;4981179;28;20509;-83
2023/04/27 05:42:21;;;;;;;7.43;3.90;;;3.20;99.90;;;;;;4981775;28;20089;-83
2023/04/27 05:44:47;;;;;;;6.20;3.58;;;3.10;99.90;;;;;;4997534;28;20045;-83
2023/04/27 05:47:12;;;;;;;7.82;3.83;;;3.00;99.90;;;;;;5013657;28;20045;-84
2023/04/27 05:49:38;;;;;;;7.20;3.40;;;3.50;99.90;;;;;;4997111;28;20065;-84
2023/04/27 05:52:04;;;;;;;9.60;4.03;;;3.30;99.90;;;;;;4997257;28;20558;-85
2023/04/27 05:54:29;;;;;;;7.57;3.95;;;3.50;99.90;;;;;;5014521;28;20049;-84
2023/04/27 05:56:55;;;;;;;6.88;3.80;;;4.90;99.90;;;;;;4997172;28;20065;-84
2023/04/27 05:59:21;;;;;;;8.30;3.90;;;4.20;99.90;;;;;;4997894;28;20104;-84
2023/04/27 06:01:46;;;;;;;6.78;3.75;;;3.80;99.90;;;;;;5014030;28;20454;-83
2023/04/27 06:04:12;;;;;;;8.77;4.03;;;3.60;99.90;;;;;;5014192;28;20046;-84
2023/04/27 06:06:38;;;;;;;7.68;3.58;;;3.60;99.90;;;;;;5012892;28;20100;-83
2023/04/27 06:09:04;;;;;;;6.40;3.10;;;4.50;99.90;;;;;;4996815;28;20084;-84
2023/04/27 06:11:29;;;;;;;7.53;3.35;;;3.50;99.90;;;;;;5014005;28;20400;-84
2023/04/27 06:13:55;;;;;;;9.35;4.25;;;3.60;99.90;;;;;;5013352;28;20041;-83
2023/04/27 06:16:21;;;;;;;6.95;3.50;;;3.90;99.90;;;;;;4996818;28;20050;-83
2023/04/27 06:18:49;;;;;;;6.75;4.05;;;4.30;99.90;;;;;;4996824;28;20088;-84
2023/04/27 06:21:15;;;;;;;4.65;3.05;;;4.30;99.90;;;;;;4996505;28;20050;-84
2023/04/27 06:23:40;;;;;;;6.50;3.45;;;4.00;99.90;;;;;;5013071;28;20140;-84
2023/04/27 06:26:06;;;;;;;7.72;3.47;;;4.40;99.90;;;;;;4996688;28;20433;-84
2023/04/27 06:28:32;;;;;;;6.55;3.90;;;4.50;99.90;;;;;;4996582;28;20042;-84
2023/04/27 06:30:58;;;;;;;6.80;3.47;;;4.10;99.90;;;;;;4996388;28;20402;-84
2023/04/27 06:33:24;;;;;;;6.35;3.38;;;4.50;99.90;;;;;;4980485;28;20042;-84
2023/04/27 06:35:50;;;;;;;7.05;3.90;;;4.40;99.90;;;;;;5012933;28;20049;-85
2023/04/27 06:38:17;;;;;;;6.22;3.30;;;5.00;99.90;;;;;;4980688;28;20049;-84
2023/04/27 06:40:43;;;;;;;5.45;2.95;;;4.60;99.90;;;;;;5013145;28;20067;-86
2023/04/27 06:43:09;;;;;;;10.38;3.38;;;5.30;99.90;;;;;;5012872;28;20056;-86
2023/04/27 06:45:35;;;;;;;6.90;3.47;;;4.60;99.90;;;;;;4980379;28;20050;-86
2023/04/27 06:48:00;;;;;;;5.47;3.85;;;5.40;99.90;;;;;;4996506;28;20141;-86
2023/04/27 06:50:26;;;;;;;6.70;3.40;;;5.10;99.90;;;;;;5012398;28;20050;-86
2023/04/27 06:52:52;;;;;;;7.78;3.65;;;5.40;99.90;;;;;;5012723;28;20496;-87
2023/04/27 06:55:18;;;;;;;6.43;3.45;;;5.00;99.90;;;;;;5014351;28;20046;-88
2023/04/27 06:57:43;;;;;;;9.75;3.63;;;4.90;99.90;;;;;;5000082;28;20567;-88
2023/04/27 07:00:12;;;;;;;8.18;3.85;;;5.40;99.90;;;;;;5016593;28;20038;-88
2023/04/27 07:02:37;;;;;;;5.65;3.47;;;5.20;99.90;;;;;;5000341;28;20456;-88
2023/04/27 07:05:03;;;;;;;6.28;3.22;;;5.30;99.90;;;;;;5000103;28;20136;-88
2023/04/27 07:07:29;;;;;;;6.25;3.25;;;5.40;99.90;;;;;;5016450;28;20050;-88
2023/04/27 07:09:55;;;;;;;7.28;3.60;;;5.40;99.90;;;;;;5016740;28;20104;-88
2023/04/27 07:12:21;;;;;;;7.03;2.70;;;6.00;99.90;;;;;;5001646;28;20508;-87
2023/04/27 07:14:49;;;;;;;5.97;2.75;;;5.60;99.90;;;;;;5001083;28;20046;-87
2023/04/27 07:17:15;;;;;;;6.90;2.75;;;5.80;99.90;;;;;;5000429;28;20058;-88
2023/04/27 07:19:41;;;;;;;5.97;3.38;;;5.90;99.90;;;;;;5016349;28;20060;-89
2023/04/27 07:22:06;;;;;;;6.53;2.70;;;5.90;99.90;;;;;;5016575;28;20045;-88
2023/04/27 07:24:32;;;;;;;4.43;2.85;;;6.20;99.90;;;;;;5000337;28;20504;-89
2023/04/27 07:26:58;;;;;;;5.60;3.28;;;6.30;99.90;;;;;;4999920;28;20065;-89
2023/04/27 07:29:26;;;;;;;5.63;2.67;;;6.30;99.90;;;;;;4999786;28;20057;-91
2023/04/27 07:31:53;;;;;;;3.92;2.88;;;6.30;99.90;;;;;;5000476;28;20136;-89
2023/04/27 07:34:19;;;;;;;5.82;3.17;;;6.30;99.90;;;;;;4999979;28;20053;-90
2023/04/27 07:36:44;;;;;;;6.55;3.10;;;6.40;99.90;;;;;;4983356;28;20053;-88
2023/04/27 07:39:10;;;;;;;4.53;2.38;;;6.20;99.90;;;;;;5016200;28;20042;-85
2023/04/27 07:41:36;;;;;;;7.97;2.78;;;6.50;99.90;;;;;;5006113;28;20494;-84
2023/04/27 07:44:02;;;;;;;4.93;2.88;;;6.80;99.90;;;;;;5016088;28;20440;-83
2023/04/27 07:46:29;;;;;;;5.13;3.10;;;6.50;99.90;;;;;;4984443;28;20136;-83
2023/04/27 07:48:58;;;;;;;5.95;2.72;;;6.90;99.90;;;;;;5000390;28;20375;-84
2023/04/27 07:51:24;;;;;;;6.85;2.53;;;6.50;99.90;;;;;;5021419;28;20455;-85
2023/04/27 07:53:50;;;;;;;4.78;2.35;;;7.20;99.90;;;;;;4999346;28;20057;-83
2023/04/27 07:56:15;;;;;;;5.03;2.33;;;7.30;99.90;;;;;;4999482;28;20058;-83
2023/04/27 07:58:42;;;;;;;6.10;2.30;;;7.10;99.90;;;;;;4999809;28;20042;-83
2023/04/27 08:01:08;;;;;;;4.07;2.22;;;7.00;99.90;;;;;;4999550;28;20082;-81
2023/04/27 08:03:33;;;;;;;4.22;2.25;;;6.90;99.90;;;;;;5015713;28;20453;-84
2023/04/27 08:05:59;;;;;;;4.20;2.08;;;7.10;99.90;;;;;;5016011;28;20475;-84
2023/04/27 08:08:25;;;;;;;4.07;2.15;;;7.20;99.90;;;;;;5014934;28;20046;-86
2023/04/27 08:10:51;;;;;;;4.28;2.40;;;7.30;99.90;;;;;;4983095;28;20134;-83
2023/04/27 08:13:16;;;;;;;4.95;2.25;;;7.30;99.90;;;;;;5015657;28;20179;-80
2023/04/27 08:15:42;;;;;;;4.03;2.72;;;7.30;99.90;;;;;;5015619;28;20054;-81
2023/04/27 08:18:08;;;;;;;5.88;2.15;;;7.60;99.90;;;;;;4998856;28;20046;-81
2023/04/27 08:20:33;;;;;;;3.30;2.08;;;7.50;99.90;;;;;;5015440;28;20089;-81
2023/04/27 08:22:59;;;;;;;5.95;2.28;;;7.50;99.90;;;;;;4999893;28;20052;-82
2023/04/27 08:25:25;;;;;;;3.50;2.33;;;7.60;99.90;;;;;;5016191;28;20056;-81
2023/04/27 08:27:51;;;;;;;4.57;2.22;;;7.80;99.90;;;;;;4982671;28;20158;-81
2023/04/27 08:30:17;;;;;;;5.05;2.60;;;7.70;99.90;;;;;;4982137;28;20137;-81
2023/04/27 08:32:42;;;;;;;4.28;1.90;;;7.60;99.90;;;;;;4999096;28;20148;-81
2023/04/27 08:35:08;;;;;;;3.00;2.17;;;8.00;99.90;;;;;;5015811;28;20465;-81
2023/04/27 08:37:34;;;;;;;3.67;2.10;;;8.00;99.90;;;;;;4984168;28;20045;-82
2023/04/27 08:40:00;;;;;;;4.85;2.25;;;8.00;99.90;;;;;;4999238;28;20046;-81
2023/04/27 08:42:25;;;;;;;3.63;2.05;;;7.90;99.90;;;;;;5015709;28;20381;-81
2023/04/27 08:44:51;;;;;;;4.32;2.30;;;8.00;99.90;;;;;;4999662;28;20065;-81
2023/04/27 08:47:17;;;;;;;4.35;1.88;;;8.10;99.90;;;;;;4982005;28;20405;-81
2023/04/27 08:49:42;;;;;;;3.97;2.30;;;8.20;99.90;;;;;;4998002;28;20192;-80
2023/04/27 08:52:15;;;;;;;4.20;2.00;;;8.20;99.90;;;;;;5014816;28;20058;-79
2023/04/27 08:54:42;;;;;;;3.88;1.80;;;8.30;99.90;;;;;;5015961;28;20163;-80
2023/04/27 08:57:12;;;;;;;3.10;1.70;;;8.40;99.90;;;;;;5014616;28;20045;-80
2023/04/27 08:59:39;;;;;;;1.92;1.35;;;8.40;99.90;;;;;;5015031;28;20050;-78
2023/04/27 09:02:05;;;;;;;3.00;1.50;;;8.50;99.90;;;;;;4998218;28;20116;-79
2023/04/27 09:04:38;;;;;;;1.67;1.33;;;8.50;99.90;;;;;;5014360;28;20050;-78
2023/04/27 09:07:11;;;;;;;;;;;8.60;99.90;;;;;;5014791;28;20057;-79
2023/04/27 09:09:36;;;;;;;3.05;1.33;;;8.70;99.90;;;;;;4981818;28;19921;-79
2023/04/27 09:12:19;;;;;;;3.92;1.75;;;8.80;99.90;;;;;;4998052;28;20049;-79
2023/04/27 09:15:07;;;;;;;2.22;1.10;;;8.90;99.90;;;;;;5014492;28;20046;-79
2023/04/27 09:17:33;;;;;;;1.95;1.35;;;9.00;99.90;;;;;;5014090;28;20049;-79
2023/04/27 09:20:09;;;;;;;3.53;1.40;;;9.10;99.90;;;;;;5013287;28;20125;-80
2023/04/27 09:22:46;;;;;;;2.42;1.33;;;9.20;99.90;;;;;;4998705;28;20101;-80
2023/04/27 09:25:25;;;;;;;3.03;1.60;;;9.40;99.90;;;;;;5014333;28;20136;-79
2023/04/27 09:27:51;;;;;;;2.90;1.30;;;9.70;99.90;;;;;;5013919;28;20120;-79
2023/04/27 09:30:17;;;;;;;2.90;1.52;;;9.50;99.90;;;;;;4981378;28;20077;-79
2023/04/27 09:32:53;;;;;;;3.88;1.60;;;9.60;99.90;;;;;;5014076;28;20060;-79
2023/04/27 09:35:28;;;;;;;3.35;1.92;;;9.50;99.90;;;;;;5013712;28;20512;-79
2023/04/27 09:37:55;;;;;;;4.97;1.58;;;9.70;99.90;;;;;;5013708;28;20049;-79
2023/04/27 09:40:26;;;;;;;4.10;1.50;;;9.70;99.90;;;;;;5014718;28;20060;-80
2023/04/27 09:42:57;;;;;;;3.15;1.60;;;9.70;99.90;;;;;;5014340;28;20462;-80
2023/04/27 09:45:24;;;;;;;5.03;1.48;;;9.90;99.90;;;;;;4997668;28;20072;-79
2023/04/27 09:47:50;;;;;;;2.60;1.90;;;10.00;99.90;;;;;;5013975;28;20050;-80
2023/04/27 09:50:16;;;;;;;3.67;1.67;;;10.00;99.90;;;;;;4996822;28;20458;-79
2023/04/27 09:52:42;;;;;;;4.80;2.03;;;10.10;99.90;;;;;;4981188;28;20089;-80
2023/04/27 09:55:15;;;;;;;2.88;1.98;;;10.20;99.90;;;;;;5013555;28;20556;-79
2023/04/27 09:57:52;;;;;;;3.83;1.98;;;10.30;99.90;;;;;;5013576;28;20091;-79
2023/04/27 10:01:01;;;;;;;5.25;2.20;;;10.30;99.90;;;;;;5013982;28;20069;-80
2023/04/27 10:03:41;;;;;;;4.57;2.47;;;10.40;99.90;;;;;;5003773;28;20475;-80
2023/04/27 10:06:38;;;;;;;3.05;2.00;;;10.50;99.90;;;;;;5013732;28;20046;-79
2023/04/27 10:09:05;;;;;;;5.53;2.90;;;10.50;99.90;;;;;;5013390;28;20092;-79
2023/04/27 10:11:46;;;;;;;5.25;3.15;;;10.50;99.90;;;;;;5013567;28;20052;-80
2023/04/27 10:14:17;;;;;;;5.20;2.22;;;10.60;99.90;;;;;;5014332;28;20042;-79
2023/04/27 10:16:52;;;;;;;4.47;2.78;;;10.60;99.90;;;;;;5013561;28;20168;-79
2023/04/27 10:19:18;;;;;;;4.88;2.55;;;10.70;99.90;;;;;;5014658;28;20076;-80
2023/04/27 10:21:55;;;;;;;5.32;2.25;;;10.70;99.90;;;;;;5013994;28;20041;-79
2023/04/27 10:24:37;;;;;;;4.53;2.60;;;11.00;99.90;;;;;;5014058;28;20054;-80
2023/04/27 10:27:05;;;;;;;4.05;2.30;;;10.70;99.90;;;;;;5013451;28;20049;-80
2023/04/27 10:29:40;;;;;;;4.18;2.60;;;10.70;99.90;;;;;;4980153;28;20050;-77
2023/04/27 10:32:23;;;;;;;3.63;2.45;;;10.70;99.90;;;;;;5013570;28;20041;-80
2023/04/27 10:35:05;;;;;;;4.03;2.58;;;10.60;99.90;;;;;;4996942;28;20053;-80
2023/04/27 10:37:43;;;;;;;4.65;2.60;;;10.70;99.90;;;;;;5013151;28;20042;-82
2023/04/27 10:40:16;;;;;;;4.63;2.88;;;10.60;99.90;;;;;;5012885;28;20045;-77
2023/04/27 10:42:43;;;;;;;4.00;2.53;;;10.60;99.90;;;;;;4997106;28;20397;-79
2023/04/27 10:45:11;;;;;;;6.35;2.88;;;10.60;99.90;;;;;;5012948;28;20042;-79
2023/04/27 10:47:41;;;;;;;3.63;2.13;;;10.50;99.90;;;;;;5013279;28;20061;-79
2023/04/27 10:50:10;;;;;;;4.28;2.40;;;10.50;99.90;;;;;;5013228;28;20352;-79
2023/04/27 10:52:40;;;;;;;5.47;2.53;;;10.50;99.90;;;;;;5014051;28;20046;-78
2023/04/27 10:55:17;;;;;;;4.40;2.38;;;10.50;99.90;;;;;;5015429;28;20054;-78
2023/04/27 10:57:51;;;;;;;5.53;2.60;;;10.40;99.90;;;;;;4997459;28;20374;-79
2023/04/27 11:00:26;;;;;;;4.45;2.55;;;10.40;99.90;;;;;;5013278;28;20046;-81
2023/04/27 11:02:56;;;;;;;3.70;2.47;;;10.40;99.90;;;;;;5013034;28;20050;-83
2023/04/27 11:05:28;;;;;;;4.20;2.47;;;10.40;99.90;;;;;;5013700;28;20415;-84
2023/04/27 11:08:04;;;;;;;5.55;2.45;;;10.30;99.90;;;;;;4996480;28;20085;-81
2023/04/27 11:10:30;;;;;;;3.25;2.40;;;10.30;99.90;;;;;;5013898;28;20082;-86
2023/04/27 11:12:56;;;;;;;3.85;2.53;;;10.30;99.90;;;;;;5012730;28;20084;-81
2023/04/27 11:15:22;;;;;;;6.50;2.70;;;10.20;99.90;;;;;;5013126;28;20077;-79
2023/04/27 11:17:48;;;;;;;4.85;2.58;;;10.20;99.90;;;;;;5014876;28;20046;-82
2023/04/27 11:20:15;;;;;;;4.72;2.30;;;10.20;99.90;;;;;;5013020;28;20490;-83
2023/04/27 11:22:45;;;;;;;4.90;2.45;;;10.20;99.90;;;;;;5012873;28;20050;-82
2023/04/27 11:25:11;;;;;;;4.18;2.33;;;10.30;99.90;;;;;;4997517;28;20115;-76
2023/04/27 11:27:39;;;;;;;4.78;2.20;;;10.20;99.90;;;;;;5012636;28;20046;-78
2023/04/27 11:30:06;;;;;;;5.40;2.50;;;10.20;99.90;;;;;;4996389;28;20453;-79
2023/04/27 11:32:32;;;;;;;7.00;2.50;;;10.30;99.90;;;;;;5013397;28;20486;-78
2023/04/27 11:34:58;;;;;;;5.60;2.33;;;10.30;99.90;;;;;;5012874;28;20465;-76
2023/04/27 11:37:26;;;;;;;4.53;2.45;;;10.30;99.90;;;;;;5014336;28;20081;-75
2023/04/27 11:39:56;;;;;;;3.95;2.45;;;10.40;99.90;;;;;;5013937;28;20460;-78
2023/04/27 11:42:30;;;;;;;4.95;2.42;;;10.40;99.90;;;;;;5015049;28;20100;-77
2023/04/27 11:45:01;;;;;;;3.58;1.95;;;10.40;99.90;;;;;;5016684;28;20494;-76
2023/04/27 11:47:29;;;;;;;4.03;2.10;;;10.50;99.90;;;;;;5016125;28;20089;-77
2023/04/27 11:49:56;;;;;;;3.67;2.20;;;10.50;99.90;;;;;;5016044;28;20058;-78
2023/04/27 11:52:30;;;;;;;2.97;2.22;;;10.60;99.90;;;;;;5017854;28;20125;-77
2023/04/27 11:54:58;;;;;;;4.90;2.28;;;10.60;99.90;;;;;;5017239;28;20117;-77
2023/04/27 11:57:28;;;;;;;3.42;2.50;;;10.70;99.90;;;;;;5016144;28;20089;-77
2023/04/27 11:59:55;;;;;;;3.25;2.45;;;10.80;99.90;;;;;;5016415;28;20058;-75
2023/04/27 12:02:21;;;;;;;4.95;2.80;;;10.90;99.90;;;;;;5017186;28;20128;-77
2023/04/27 12:04:48;;;;;;;5.88;2.67;;;10.90;99.90;;;;;;5017097;28;20188;-77
2023/04/27 12:07:14;;;;;;;5.32;2.78;;;11.00;99.90;;;;;;5016059;28;20129;-78
2023/04/27 12:09:40;;;;;;;5.85;3.78;;;11.00;99.90;;;;;;5016909;28;20180;-76
2023/04/27 12:12:07;;;;;;;3.35;2.70;;;11.10;99.90;;;;;;5016804;28;20053;-77
2023/04/27 12:14:33;;;;;;;5.65;3.03;;;11.10;99.90;;;;;;5016274;28;20046;-77
2023/04/27 12:16:58;;;;;;;5.32;3.15;;;11.20;99.90;;;;;;5016776;28;20391;-75
2023/04/27 12:19:24;;;;;;;5.03;3.40;;;11.40;99.90;;;;;;5017533;28;20034;-77
2023/04/27 12:21:51;;;;;;;5.32;2.78;;;11.40;99.90;;;;;;5015689;28;20042;-78
2023/04/27 12:24:17;;;;;;;5.35;2.95;;;11.50;99.90;;;;;;4999703;28;20398;-77
2023/04/27 12:26:43;;;;;;;4.40;2.72;;;11.50;99.90;;;;;;4999541;28;20473;-76
2023/04/27 12:29:09;;;;;;;5.57;3.40;;;11.60;99.90;;;;;;5016468;28;20147;-76
2023/04/27 12:31:35;;;;;;;6.70;2.92;;;11.70;99.90;;;;;;5016631;28;20221;-76
2023/04/27 12:34:01;;;;;;;5.15;2.58;;;11.70;99.90;;;;;;5016853;28;20132;-76
2023/04/27 12:36:27;;;;;;;3.45;2.60;;;11.80;99.90;;;;;;5016962;28;20104;-77
2023/04/27 12:38:59;;;;;;;6.15;3.45;;;11.80;99.90;;;;;;5015470;28;20045;-75
2023/04/27 12:41:25;;;;;;;7.18;3.05;;;11.80;99.70;;;;;;5017576;28;20125;-73
2023/04/27 12:43:51;;;;;;;4.45;2.80;;;11.80;99.50;;;;;;5000569;28;20057;-76
2023/04/27 12:46:17;;;;;;;3.78;2.88;;;11.80;98.70;;;;;;5016159;28;20482;-76
2023/04/27 12:48:43;;;;;;;4.43;3.35;;;11.70;98.90;;;;;;5015254;28;20057;-75
2023/04/27 12:51:09;;;;;;;5.88;3.30;;;11.70;98.90;;;;;;5017380;28;20054;-79
2023/04/27 12:53:35;;;;;;;5.05;2.80;;;11.60;98.50;;;;;;5015177;28;20064;-76
2023/04/27 12:56:03;;;;;;;4.13;2.67;;;11.60;99.10;;;;;;5016551;28;20053;-75